sensor_id;sensor_type;location;lat;lon;timestamp;P1;durP1;ratioP1;P2;durP2;ratioP2
67675;SDS011;54456;48.436;10.028;2023-08-24T08:10:00;14.93;;;9.38;;
67675;SDS011;54456;48.436;10.028;2023-08-24T08:11:31;15.15;;;9.57;;
67675;SDS011;54456;48.436;10.028;2023-08-24T08:13:02;16.13;;;9.38;;
67675;SDS011;54456;48.436;10.028;2023-08-24T08:14:32;14.00;;;9.75;;
67675;SDS011;54456;48.436;10.028;2023-08-24T08:16:04;17.05;;;10.40;;
67675;SDS011;54456;48.436;10.028;2023-08-24T08:17:35;17.02;;;9.80;;
67675;SDS011;54456;48.436;10.028;2023-08-24T08:19:05;16.13;;;10.18;;
67675;SDS011;54456;48.436;10.028;2023-08-24T08:20:36;15.55;;;9.70;;
67675;SDS011;54456;48.436;10.028;2023-08-24T08:22:12;14.43;;;9.27;;
67675;SDS011;54456;48.436;10.028;2023-08-24T08:23:42;14.70;;;9.02;;
67675;SDS011;54456;48.436;10.028;2023-08-24T08:25:13;15.45;;;9.35;;
67675;SDS011;54456;48.436;10.028;2023-08-24T08:26:44;15.57;;;9.00;;
67675;SDS011;54456;48.436;10.028;2023-08-24T08:28:14;15.50;;;9.52;;
67675;SDS011;54456;48.436;10.028;2023-08-24T08:29:45;14.48;;;9.00;;
67675;SDS011;54456;48.436;10.028;2023-08-24T08:31:16;14.57;;;9.13;;
67675;SDS011;54456;48.436;10.028;2023-08-24T08:32:47;15.63;;;9.23;;
67675;SDS011;54456;48.436;10.028;2023-08-24T08:34:18;14.57;;;9.07;;
67675;SDS011;54456;48.436;10.028;2023-08-24T08:35:49;16.77;;;10.15;;
67675;SDS011;54456;48.436;10.028;2023-08-24T08:37:19;13.27;;;8.43;;
67675;SDS011;54456;48.436;10.028;2023-08-24T08:38:50;16.55;;;9.75;;
67675;SDS011;54456;48.436;10.028;2023-08-24T08:40:20;17.85;;;9.70;;
67675;SDS011;54456;48.436;10.028;2023-08-24T08:41:51;17.60;;;10.25;;
67675;SDS011;54456;48.436;10.028;2023-08-24T08:43:22;16.17;;;11.07;;
67675;SDS011;54456;48.436;10.028;2023-08-24T08:44:53;15.90;;;9.85;;
67675;SDS011;54456;48.436;10.028;2023-08-24T08:46:25;17.00;;;10.82;;
67675;SDS011;54456;48.436;10.028;2023-08-24T08:48:00;14.07;;;9.50;;
67675;SDS011;54456;48.436;10.028;2023-08-24T08:49:31;15.77;;;10.07;;
67675;SDS011;54456;48.436;10.028;2023-08-24T08:51:05;15.55;;;10.80;;
67675;SDS011;54456;48.436;10.028;2023-08-24T08:52:35;14.77;;;9.65;;
67675;SDS011;54456;48.436;10.028;2023-08-24T08:54:06;16.27;;;9.45;;
67675;SDS011;54456;48.436;10.028;2023-08-24T08:55:37;14.02;;;9.25;;
67675;SDS011;54456;48.436;10.028;2023-08-24T08:57:07;15.52;;;8.60;;
67675;SDS011;54456;48.436;10.028;2023-08-24T08:58:38;16.58;;;9.18;;
67675;SDS011;54456;48.436;10.028;2023-08-24T09:00:10;13.38;;;9.00;;
67675;SDS011;54456;48.436;10.028;2023-08-24T09:01:43;14.85;;;9.45;;
67675;SDS011;54456;48.436;10.028;2023-08-24T09:03:18;16.98;;;10.18;;
67675;SDS011;54456;48.436;10.028;2023-08-24T09:04:50;15.35;;;9.10;;
67675;SDS011;54456;48.436;10.028;2023-08-24T09:06:21;15.38;;;9.23;;
67675;SDS011;54456;48.436;10.028;2023-08-24T09:07:53;16.63;;;9.02;;
67675;SDS011;54456;48.436;10.028;2023-08-24T09:09:25;11.82;;;8.13;;
67675;SDS011;54456;48.436;10.028;2023-08-24T09:10:56;14.65;;;9.45;;
67675;SDS011;54456;48.436;10.028;2023-08-24T09:12:30;15.25;;;9.82;;
67675;SDS011;54456;48.436;10.028;2023-08-24T09:14:03;14.40;;;8.50;;
67675;SDS011;54456;48.436;10.028;2023-08-24T09:15:36;13.43;;;9.20;;
67675;SDS011;54456;48.436;10.028;2023-08-24T09:18:38;12.52;;;8.07;;
67675;SDS011;54456;48.436;10.028;2023-08-24T09:20:12;17.80;;;9.23;;
67675;SDS011;54456;48.436;10.028;2023-08-24T09:21:45;15.20;;;8.50;;
67675;SDS011;54456;48.436;10.028;2023-08-24T09:23:19;14.10;;;8.80;;
67675;SDS011;54456;48.436;10.028;2023-08-24T09:24:50;18.02;;;9.02;;
67675;SDS011;54456;48.436;10.028;2023-08-24T09:26:33;13.25;;;9.13;;
67675;SDS011;54456;48.436;10.028;2023-08-24T09:28:05;13.43;;;8.50;;
67675;SDS011;54456;48.436;10.028;2023-08-24T09:29:36;13.30;;;8.95;;
67675;SDS011;54456;48.436;10.028;2023-08-24T09:31:08;12.38;;;8.23;;
67675;SDS011;54456;48.436;10.028;2023-08-24T09:32:38;15.57;;;8.98;;
67675;SDS011;54456;48.436;10.028;2023-08-24T09:34:10;11.60;;;8.10;;
67675;SDS011;54456;48.436;10.028;2023-08-24T09:35:41;11.52;;;7.50;;
67675;SDS011;54456;48.436;10.028;2023-08-24T09:37:13;15.75;;;8.18;;
67675;SDS011;54456;48.436;10.028;2023-08-24T09:38:45;11.13;;;7.72;;
67675;SDS011;54456;48.436;10.028;2023-08-24T09:40:24;11.95;;;8.15;;
67675;SDS011;54456;48.436;10.028;2023-08-24T09:41:58;11.48;;;7.50;;
67675;SDS011;54456;48.436;10.028;2023-08-24T09:43:30;11.75;;;7.65;;
67675;SDS011;54456;48.436;10.028;2023-08-24T09:45:04;13.65;;;7.90;;
67675;SDS011;54456;48.436;10.028;2023-08-24T09:46:36;12.88;;;7.47;;
67675;SDS011;54456;48.436;10.028;2023-08-24T09:49:39;13.43;;;7.70;;
67675;SDS011;54456;48.436;10.028;2023-08-24T09:51:11;11.73;;;7.68;;
67675;SDS011;54456;48.436;10.028;2023-08-24T09:52:42;13.45;;;8.10;;
67675;SDS011;54456;48.436;10.028;2023-08-24T09:54:13;11.60;;;7.32;;
67675;SDS011;54456;48.436;10.028;2023-08-24T09:56:07;11.85;;;7.47;;
67675;SDS011;54456;48.436;10.028;2023-08-24T09:57:39;11.70;;;7.90;;
67675;SDS011;54456;48.436;10.028;2023-08-24T09:59:13;12.02;;;7.97;;
67675;SDS011;54456;48.436;10.028;2023-08-24T10:00:47;14.02;;;9.07;;
67675;SDS011;54456;48.436;10.028;2023-08-24T10:02:25;10.93;;;7.72;;
67675;SDS011;54456;48.436;10.028;2023-08-24T10:04:00;14.75;;;8.23;;
67675;SDS011;54456;48.436;10.028;2023-08-24T10:07:08;15.53;;;7.70;;
67675;SDS011;54456;48.436;10.028;2023-08-24T10:08:47;13.95;;;8.93;;
67675;SDS011;54456;48.436;10.028;2023-08-24T10:10:23;13.32;;;8.40;;
67675;SDS011;54456;48.436;10.028;2023-08-24T10:13:39;12.30;;;7.97;;
67675;SDS011;54456;48.436;10.028;2023-08-24T10:15:11;11.80;;;7.38;;
67675;SDS011;54456;48.436;10.028;2023-08-24T10:16:42;13.60;;;8.65;;
67675;SDS011;54456;48.436;10.028;2023-08-24T10:18:17;12.73;;;7.97;;
67675;SDS011;54456;48.436;10.028;2023-08-24T10:19:48;14.35;;;8.35;;
67675;SDS011;54456;48.436;10.028;2023-08-24T10:21:23;12.75;;;8.25;;
67675;SDS011;54456;48.436;10.028;2023-08-24T10:22:57;14.32;;;8.45;;
67675;SDS011;54456;48.436;10.028;2023-08-24T10:24:29;14.20;;;8.40;;
67675;SDS011;54456;48.436;10.028;2023-08-24T10:26:05;12.93;;;8.05;;
67675;SDS011;54456;48.436;10.028;2023-08-24T10:27:37;15.40;;;8.73;;
67675;SDS011;54456;48.436;10.028;2023-08-24T10:29:13;12.48;;;8.10;;
67675;SDS011;54456;48.436;10.028;2023-08-24T10:30:43;14.10;;;8.68;;
67675;SDS011;54456;48.436;10.028;2023-08-24T10:32:15;12.93;;;8.77;;
67675;SDS011;54456;48.436;10.028;2023-08-24T10:33:46;12.35;;;8.23;;
67675;SDS011;54456;48.436;10.028;2023-08-24T10:35:17;13.45;;;8.85;;
67675;SDS011;54456;48.436;10.028;2023-08-24T10:36:48;14.90;;;8.60;;
67675;SDS011;54456;48.436;10.028;2023-08-24T10:39:58;13.18;;;9.10;;
67675;SDS011;54456;48.436;10.028;2023-08-24T10:41:28;12.45;;;8.13;;
67675;SDS011;54456;48.436;10.028;2023-08-24T10:43:02;12.98;;;8.68;;
67675;SDS011;54456;48.436;10.028;2023-08-24T10:44:35;12.02;;;7.57;;
67675;SDS011;54456;48.436;10.028;2023-08-24T10:46:14;12.07;;;7.63;;
67675;SDS011;54456;48.436;10.028;2023-08-24T10:47:46;12.18;;;7.35;;
67675;SDS011;54456;48.436;10.028;2023-08-24T10:49:18;12.70;;;8.63;;
67675;SDS011;54456;48.436;10.028;2023-08-24T10:52:49;13.60;;;7.40;;
67675;SDS011;54456;48.436;10.028;2023-08-24T10:54:27;11.65;;;6.70;;
67675;SDS011;54456;48.436;10.028;2023-08-24T10:56:10;15.43;;;8.13;;
67675;SDS011;54456;48.436;10.028;2023-08-24T10:57:42;12.00;;;8.60;;
67675;SDS011;54456;48.436;10.028;2023-08-24T10:59:13;11.15;;;7.57;;
67675;SDS011;54456;48.436;10.028;2023-08-24T11:00:47;12.55;;;7.60;;
67675;SDS011;54456;48.436;10.028;2023-08-24T11:02:19;13.13;;;7.35;;
67675;SDS011;54456;48.436;10.028;2023-08-24T11:03:50;14.20;;;9.35;;
67675;SDS011;54456;48.436;10.028;2023-08-24T11:05:27;13.70;;;8.00;;
67675;SDS011;54456;48.436;10.028;2023-08-24T11:07:00;15.48;;;8.88;;
67675;SDS011;54456;48.436;10.028;2023-08-24T11:08:45;14.38;;;9.00;;
67675;SDS011;54456;48.436;10.028;2023-08-24T11:10:16;13.85;;;8.18;;
67675;SDS011;54456;48.436;10.028;2023-08-24T11:11:57;12.55;;;7.70;;
67675;SDS011;54456;48.436;10.028;2023-08-24T11:13:28;13.55;;;8.15;;
67675;SDS011;54456;48.436;10.028;2023-08-24T11:14:58;14.38;;;7.50;;
67675;SDS011;54456;48.436;10.028;2023-08-24T11:16:38;12.27;;;7.85;;
67675;SDS011;54456;48.436;10.028;2023-08-24T11:18:22;17.60;;;7.57;;
67675;SDS011;54456;48.436;10.028;2023-08-24T11:26:45;13.70;;;7.70;;
67675;SDS011;54456;48.436;10.028;2023-08-24T11:28:19;12.35;;;7.10;;
67675;SDS011;54456;48.436;10.028;2023-08-24T11:29:59;12.35;;;7.13;;
67675;SDS011;54456;48.436;10.028;2023-08-24T11:31:30;11.65;;;7.13;;
67675;SDS011;54456;48.436;10.028;2023-08-24T11:33:00;12.02;;;7.28;;
67675;SDS011;54456;48.436;10.028;2023-08-24T11:34:33;12.52;;;7.28;;
67675;SDS011;54456;48.436;10.028;2023-08-24T11:36:04;11.23;;;7.18;;
67675;SDS011;54456;48.436;10.028;2023-08-24T11:37:37;11.98;;;7.68;;
67675;SDS011;54456;48.436;10.028;2023-08-24T11:39:13;11.45;;;7.22;;
67675;SDS011;54456;48.436;10.028;2023-08-24T11:40:54;11.50;;;7.30;;
67675;SDS011;54456;48.436;10.028;2023-08-24T11:42:25;10.82;;;7.60;;
67675;SDS011;54456;48.436;10.028;2023-08-24T11:43:58;11.10;;;7.47;;
67675;SDS011;54456;48.436;10.028;2023-08-24T11:45:31;11.55;;;7.30;;
67675;SDS011;54456;48.436;10.028;2023-08-24T11:47:07;11.27;;;7.60;;
67675;SDS011;54456;48.436;10.028;2023-08-24T11:48:38;13.95;;;8.25;;
67675;SDS011;54456;48.436;10.028;2023-08-24T11:50:09;11.82;;;7.50;;
67675;SDS011;54456;48.436;10.028;2023-08-24T11:51:40;10.52;;;6.80;;
67675;SDS011;54456;48.436;10.028;2023-08-24T11:53:10;15.43;;;7.53;;
67675;SDS011;54456;48.436;10.028;2023-08-24T11:54:41;10.68;;;6.85;;
67675;SDS011;54456;48.436;10.028;2023-08-24T11:56:12;12.30;;;7.50;;
67675;SDS011;54456;48.436;10.028;2023-08-24T11:57:43;11.45;;;7.00;;
67675;SDS011;54456;48.436;10.028;2023-08-24T11:59:13;14.40;;;6.88;;
67675;SDS011;54456;48.436;10.028;2023-08-24T12:00:45;12.32;;;7.05;;
67675;SDS011;54456;48.436;10.028;2023-08-24T12:02:16;11.77;;;7.32;;
67675;SDS011;54456;48.436;10.028;2023-08-24T12:03:47;13.93;;;7.25;;
67675;SDS011;54456;48.436;10.028;2023-08-24T12:05:21;11.48;;;6.60;;
67675;SDS011;54456;48.436;10.028;2023-08-24T12:06:55;11.10;;;6.50;;
67675;SDS011;54456;48.436;10.028;2023-08-24T12:08:25;10.93;;;6.90;;
67675;SDS011;54456;48.436;10.028;2023-08-24T12:09:56;11.02;;;6.45;;
67675;SDS011;54456;48.436;10.028;2023-08-24T12:11:26;10.80;;;6.40;;
67675;SDS011;54456;48.436;10.028;2023-08-24T12:13:03;13.27;;;6.72;;
67675;SDS011;54456;48.436;10.028;2023-08-24T12:14:44;12.25;;;6.07;;
67675;SDS011;54456;48.436;10.028;2023-08-24T12:16:15;11.98;;;6.60;;
67675;SDS011;54456;48.436;10.028;2023-08-24T12:17:47;11.35;;;5.90;;
67675;SDS011;54456;48.436;10.028;2023-08-24T12:19:18;10.27;;;5.90;;
67675;SDS011;54456;48.436;10.028;2023-08-24T12:20:51;10.70;;;6.78;;
67675;SDS011;54456;48.436;10.028;2023-08-24T12:22:21;12.15;;;6.63;;
67675;SDS011;54456;48.436;10.028;2023-08-24T12:23:58;12.70;;;6.63;;
67675;SDS011;54456;48.436;10.028;2023-08-24T12:25:30;11.15;;;6.10;;
67675;SDS011;54456;48.436;10.028;2023-08-24T12:27:00;11.10;;;6.50;;
67675;SDS011;54456;48.436;10.028;2023-08-24T12:28:33;12.32;;;6.65;;
67675;SDS011;54456;48.436;10.028;2023-08-24T12:30:05;11.40;;;6.95;;
67675;SDS011;54456;48.436;10.028;2023-08-24T12:31:36;10.73;;;6.50;;
67675;SDS011;54456;48.436;10.028;2023-08-24T12:33:07;11.85;;;6.90;;
67675;SDS011;54456;48.436;10.028;2023-08-24T12:34:38;11.80;;;7.40;;
67675;SDS011;54456;48.436;10.028;2023-08-24T12:36:09;11.32;;;6.85;;
67675;SDS011;54456;48.436;10.028;2023-08-24T12:37:39;11.73;;;6.88;;
67675;SDS011;54456;48.436;10.028;2023-08-24T12:39:10;10.90;;;7.30;;
67675;SDS011;54456;48.436;10.028;2023-08-24T12:40:42;10.75;;;6.70;;
67675;SDS011;54456;48.436;10.028;2023-08-24T12:42:13;12.77;;;6.93;;
67675;SDS011;54456;48.436;10.028;2023-08-24T12:43:43;12.25;;;6.47;;
67675;SDS011;54456;48.436;10.028;2023-08-24T12:45:14;11.35;;;6.47;;
67675;SDS011;54456;48.436;10.028;2023-08-24T12:46:44;12.18;;;6.35;;
67675;SDS011;54456;48.436;10.028;2023-08-24T12:52:15;11.88;;;6.55;;
67675;SDS011;54456;48.436;10.028;2023-08-24T12:53:45;12.07;;;6.70;;
67675;SDS011;54456;48.436;10.028;2023-08-24T12:55:16;11.35;;;6.72;;
67675;SDS011;54456;48.436;10.028;2023-08-24T12:56:47;11.55;;;6.75;;
67675;SDS011;54456;48.436;10.028;2023-08-24T13:03:36;15.90;;;7.05;;
67675;SDS011;54456;48.436;10.028;2023-08-24T13:05:09;13.02;;;6.70;;
67675;SDS011;54456;48.436;10.028;2023-08-24T13:06:44;15.43;;;7.40;;
67675;SDS011;54456;48.436;10.028;2023-08-24T13:08:15;12.15;;;6.70;;
67675;SDS011;54456;48.436;10.028;2023-08-24T13:09:46;14.27;;;6.97;;
67675;SDS011;54456;48.436;10.028;2023-08-24T13:11:18;13.52;;;6.70;;
67675;SDS011;54456;48.436;10.028;2023-08-24T13:12:52;11.10;;;6.65;;
67675;SDS011;54456;48.436;10.028;2023-08-24T13:14:24;14.40;;;6.88;;
67675;SDS011;54456;48.436;10.028;2023-08-24T13:15:55;16.08;;;6.57;;
67675;SDS011;54456;48.436;10.028;2023-08-24T13:17:29;16.65;;;7.03;;
67675;SDS011;54456;48.436;10.028;2023-08-24T13:19:00;14.98;;;7.40;;
67675;SDS011;54456;48.436;10.028;2023-08-24T13:20:31;12.98;;;6.90;;
67675;SDS011;54456;48.436;10.028;2023-08-24T13:22:02;12.50;;;7.15;;
67675;SDS011;54456;48.436;10.028;2023-08-24T13:23:34;13.13;;;6.90;;
67675;SDS011;54456;48.436;10.028;2023-08-24T13:25:31;13.05;;;6.45;;
67675;SDS011;54456;48.436;10.028;2023-08-24T13:27:02;13.48;;;7.00;;
67675;SDS011;54456;48.436;10.028;2023-08-24T13:28:33;13.27;;;6.70;;
67675;SDS011;54456;48.436;10.028;2023-08-24T13:30:03;15.45;;;6.75;;
67675;SDS011;54456;48.436;10.028;2023-08-24T13:31:34;13.07;;;6.90;;
67675;SDS011;54456;48.436;10.028;2023-08-24T13:33:06;12.35;;;7.00;;
67675;SDS011;54456;48.436;10.028;2023-08-24T13:34:36;13.85;;;7.07;;
67675;SDS011;54456;48.436;10.028;2023-08-24T13:36:07;13.07;;;7.50;;
67675;SDS011;54456;48.436;10.028;2023-08-24T13:37:37;13.02;;;7.20;;
67675;SDS011;54456;48.436;10.028;2023-08-24T13:39:08;11.75;;;6.90;;
67675;SDS011;54456;48.436;10.028;2023-08-24T13:40:40;13.93;;;7.50;;
67675;SDS011;54456;48.436;10.028;2023-08-24T13:42:11;13.18;;;6.55;;
67675;SDS011;54456;48.436;10.028;2023-08-24T13:43:43;14.82;;;7.50;;
67675;SDS011;54456;48.436;10.028;2023-08-24T13:45:13;12.50;;;7.03;;
67675;SDS011;54456;48.436;10.028;2023-08-24T13:46:43;13.38;;;7.18;;
67675;SDS011;54456;48.436;10.028;2023-08-24T13:48:14;12.10;;;6.72;;
67675;SDS011;54456;48.436;10.028;2023-08-24T13:49:44;14.73;;;7.03;;
67675;SDS011;54456;48.436;10.028;2023-08-24T13:51:15;12.52;;;6.93;;
67675;SDS011;54456;48.436;10.028;2023-08-24T13:52:45;14.75;;;6.75;;
67675;SDS011;54456;48.436;10.028;2023-08-24T13:54:16;12.65;;;6.70;;
67675;SDS011;54456;48.436;10.028;2023-08-24T13:55:47;12.63;;;6.97;;
67675;SDS011;54456;48.436;10.028;2023-08-24T13:57:18;14.30;;;7.40;;
67675;SDS011;54456;48.436;10.028;2023-08-24T13:58:48;13.07;;;6.80;;
67675;SDS011;54456;48.436;10.028;2023-08-24T14:00:19;11.23;;;6.90;;
67675;SDS011;54456;48.436;10.028;2023-08-24T14:01:49;15.80;;;7.50;;
67675;SDS011;54456;48.436;10.028;2023-08-24T14:03:20;13.50;;;6.85;;
67675;SDS011;54456;48.436;10.028;2023-08-24T14:04:50;13.52;;;7.53;;
67675;SDS011;54456;48.436;10.028;2023-08-24T14:06:22;14.07;;;7.32;;
67675;SDS011;54456;48.436;10.028;2023-08-24T14:07:53;14.18;;;7.22;;
67675;SDS011;54456;48.436;10.028;2023-08-24T14:09:23;14.25;;;6.70;;
67675;SDS011;54456;48.436;10.028;2023-08-24T14:10:56;14.20;;;7.15;;
67675;SDS011;54456;48.436;10.028;2023-08-24T14:12:26;17.45;;;6.90;;
67675;SDS011;54456;48.436;10.028;2023-08-24T14:13:57;14.68;;;7.25;;
67675;SDS011;54456;48.436;10.028;2023-08-24T14:15:28;16.15;;;7.82;;
67675;SDS011;54456;48.436;10.028;2023-08-24T14:17:01;13.48;;;7.18;;
67675;SDS011;54456;48.436;10.028;2023-08-24T14:18:31;13.55;;;6.82;;
67675;SDS011;54456;48.436;10.028;2023-08-24T14:20:02;13.07;;;6.90;;
67675;SDS011;54456;48.436;10.028;2023-08-24T14:21:34;13.20;;;6.80;;
67675;SDS011;54456;48.436;10.028;2023-08-24T14:23:05;13.38;;;6.75;;
67675;SDS011;54456;48.436;10.028;2023-08-24T14:24:35;13.52;;;7.05;;
67675;SDS011;54456;48.436;10.028;2023-08-24T14:26:05;13.30;;;7.00;;
67675;SDS011;54456;48.436;10.028;2023-08-24T14:27:36;13.27;;;6.78;;
67675;SDS011;54456;48.436;10.028;2023-08-24T14:29:08;14.02;;;6.63;;
67675;SDS011;54456;48.436;10.028;2023-08-24T14:30:38;13.30;;;7.30;;
67675;SDS011;54456;48.436;10.028;2023-08-24T14:32:09;16.67;;;7.15;;
67675;SDS011;54456;48.436;10.028;2023-08-24T14:33:40;12.10;;;6.93;;
67675;SDS011;54456;48.436;10.028;2023-08-24T14:35:10;14.13;;;7.20;;
67675;SDS011;54456;48.436;10.028;2023-08-24T14:36:40;12.38;;;7.03;;
67675;SDS011;54456;48.436;10.028;2023-08-24T14:38:12;15.10;;;6.60;;
67675;SDS011;54456;48.436;10.028;2023-08-24T14:39:42;13.60;;;6.45;;
67675;SDS011;54456;48.436;10.028;2023-08-24T14:41:16;14.40;;;7.20;;
67675;SDS011;54456;48.436;10.028;2023-08-24T14:42:46;14.27;;;6.85;;
67675;SDS011;54456;48.436;10.028;2023-08-24T14:44:18;13.52;;;6.93;;
67675;SDS011;54456;48.436;10.028;2023-08-24T14:45:52;18.38;;;7.20;;
67675;SDS011;54456;48.436;10.028;2023-08-24T14:47:22;15.50;;;7.70;;
67675;SDS011;54456;48.436;10.028;2023-08-24T14:48:52;15.32;;;6.93;;
67675;SDS011;54456;48.436;10.028;2023-08-24T14:50:23;15.90;;;7.10;;
67675;SDS011;54456;48.436;10.028;2023-08-24T14:51:53;15.82;;;6.75;;
67675;SDS011;54456;48.436;10.028;2023-08-24T14:53:24;12.23;;;6.80;;
67675;SDS011;54456;48.436;10.028;2023-08-24T14:54:55;12.07;;;6.85;;
67675;SDS011;54456;48.436;10.028;2023-08-24T14:56:25;15.00;;;7.18;;
67675;SDS011;54456;48.436;10.028;2023-08-24T14:57:56;15.15;;;7.53;;
67675;SDS011;54456;48.436;10.028;2023-08-24T14:59:27;13.70;;;6.68;;
67675;SDS011;54456;48.436;10.028;2023-08-24T15:00:57;13.55;;;7.45;;
67675;SDS011;54456;48.436;10.028;2023-08-24T15:02:28;14.10;;;6.95;;
67675;SDS011;54456;48.436;10.028;2023-08-24T15:03:58;14.63;;;7.10;;
67675;SDS011;54456;48.436;10.028;2023-08-24T15:05:29;14.75;;;7.05;;
67675;SDS011;54456;48.436;10.028;2023-08-24T15:06:59;15.95;;;6.93;;
67675;SDS011;54456;48.436;10.028;2023-08-24T15:08:30;13.82;;;6.72;;
67675;SDS011;54456;48.436;10.028;2023-08-24T15:10:06;16.58;;;7.35;;
67675;SDS011;54456;48.436;10.028;2023-08-24T15:11:37;15.57;;;7.35;;
67675;SDS011;54456;48.436;10.028;2023-08-24T15:13:07;13.55;;;7.00;;
67675;SDS011;54456;48.436;10.028;2023-08-24T15:14:38;14.30;;;6.75;;
67675;SDS011;54456;48.436;10.028;2023-08-24T15:16:27;14.25;;;6.60;;
67675;SDS011;54456;48.436;10.028;2023-08-24T15:25:17;16.83;;;6.50;;
67675;SDS011;54456;48.436;10.028;2023-08-24T15:26:47;14.20;;;6.60;;
67675;SDS011;54456;48.436;10.028;2023-08-24T15:28:19;13.75;;;6.30;;
67675;SDS011;54456;48.436;10.028;2023-08-24T15:29:50;12.98;;;6.45;;
67675;SDS011;54456;48.436;10.028;2023-08-24T15:32:53;13.80;;;6.47;;
67675;SDS011;54456;48.436;10.028;2023-08-24T15:34:24;15.98;;;6.50;;
67675;SDS011;54456;48.436;10.028;2023-08-24T15:36:00;13.00;;;6.35;;
67675;SDS011;54456;48.436;10.028;2023-08-24T15:37:39;14.30;;;6.93;;
67675;SDS011;54456;48.436;10.028;2023-08-24T15:39:10;12.70;;;6.22;;
67675;SDS011;54456;48.436;10.028;2023-08-24T15:40:42;14.43;;;6.47;;
67675;SDS011;54456;48.436;10.028;2023-08-24T15:42:22;14.43;;;6.80;;
67675;SDS011;54456;48.436;10.028;2023-08-24T15:43:53;17.95;;;6.28;;
67675;SDS011;54456;48.436;10.028;2023-08-24T15:45:24;15.75;;;6.80;;
67675;SDS011;54456;48.436;10.028;2023-08-24T15:56:41;12.48;;;6.28;;
67675;SDS011;54456;48.436;10.028;2023-08-24T15:58:14;13.15;;;6.25;;
67675;SDS011;54456;48.436;10.028;2023-08-24T15:59:45;16.30;;;6.20;;
67675;SDS011;54456;48.436;10.028;2023-08-24T16:01:15;13.50;;;6.57;;
67675;SDS011;54456;48.436;10.028;2023-08-24T16:02:46;14.70;;;6.47;;
67675;SDS011;54456;48.436;10.028;2023-08-24T16:04:16;15.60;;;6.73;;
67675;SDS011;54456;48.436;10.028;2023-08-24T16:05:46;19.20;;;7.07;;
67675;SDS011;54456;48.436;10.028;2023-08-24T16:07:17;13.85;;;6.00;;
67675;SDS011;54456;48.436;10.028;2023-08-24T16:08:47;15.20;;;6.38;;
67675;SDS011;54456;48.436;10.028;2023-08-24T16:10:18;13.55;;;6.10;;
67675;SDS011;54456;48.436;10.028;2023-08-24T16:11:50;17.10;;;7.45;;
67675;SDS011;54456;48.436;10.028;2023-08-24T16:13:22;17.35;;;6.93;;
67675;SDS011;54456;48.436;10.028;2023-08-24T16:14:54;9.90;;;5.97;;
67675;SDS011;54456;48.436;10.028;2023-08-24T16:16:46;14.10;;;6.03;;
67675;SDS011;54456;48.436;10.028;2023-08-24T16:18:19;19.55;;;6.63;;
67675;SDS011;54456;48.436;10.028;2023-08-24T16:19:53;14.00;;;6.45;;
67675;SDS011;54456;48.436;10.028;2023-08-24T16:21:26;13.77;;;6.10;;
67675;SDS011;54456;48.436;10.028;2023-08-24T16:23:07;15.75;;;5.90;;
67675;SDS011;54456;48.436;10.028;2023-08-24T16:24:48;14.75;;;6.07;;
67675;SDS011;54456;48.436;10.028;2023-08-24T16:29:22;15.73;;;6.47;;
67675;SDS011;54456;48.436;10.028;2023-08-24T16:36:13;14.52;;;6.38;;
67675;SDS011;54456;48.436;10.028;2023-08-24T16:37:44;12.98;;;6.50;;
67675;SDS011;54456;48.436;10.028;2023-08-24T16:39:17;14.02;;;6.97;;
67675;SDS011;54456;48.436;10.028;2023-08-24T16:40:47;16.90;;;6.47;;
67675;SDS011;54456;48.436;10.028;2023-08-24T16:42:18;14.05;;;6.40;;
67675;SDS011;54456;48.436;10.028;2023-08-24T16:43:49;11.07;;;6.30;;
67675;SDS011;54456;48.436;10.028;2023-08-24T16:45:20;13.88;;;6.35;;
67675;SDS011;54456;48.436;10.028;2023-08-24T16:46:53;11.65;;;6.63;;
67675;SDS011;54456;48.436;10.028;2023-08-24T16:48:24;14.50;;;6.63;;
67675;SDS011;54456;48.436;10.028;2023-08-24T16:49:55;16.27;;;6.43;;
67675;SDS011;54456;48.436;10.028;2023-08-24T16:51:26;17.45;;;7.80;;
67675;SDS011;54456;48.436;10.028;2023-08-24T16:52:57;14.70;;;7.10;;
67675;SDS011;54456;48.436;10.028;2023-08-24T16:54:28;16.73;;;7.32;;
67675;SDS011;54456;48.436;10.028;2023-08-24T16:55:59;19.00;;;6.10;;
67675;SDS011;54456;48.436;10.028;2023-08-24T16:57:29;18.33;;;6.00;;
67675;SDS011;54456;48.436;10.028;2023-08-24T16:59:00;13.38;;;6.18;;
67675;SDS011;54456;48.436;10.028;2023-08-24T17:00:32;15.82;;;5.80;;
67675;SDS011;54456;48.436;10.028;2023-08-24T17:02:07;12.05;;;6.20;;
67675;SDS011;54456;48.436;10.028;2023-08-24T17:03:38;13.20;;;5.90;;
67675;SDS011;54456;48.436;10.028;2023-08-24T17:05:16;13.07;;;5.63;;
67675;SDS011;54456;48.436;10.028;2023-08-24T17:06:47;16.65;;;6.07;;
67675;SDS011;54456;48.436;10.028;2023-08-24T17:08:18;14.98;;;6.00;;
67675;SDS011;54456;48.436;10.028;2023-08-24T17:09:51;13.25;;;5.65;;
67675;SDS011;54456;48.436;10.028;2023-08-24T17:11:29;14.80;;;6.10;;
67675;SDS011;54456;48.436;10.028;2023-08-24T17:13:04;14.43;;;6.32;;
67675;SDS011;54456;48.436;10.028;2023-08-24T17:16:24;15.30;;;6.35;;
67675;SDS011;54456;48.436;10.028;2023-08-24T17:17:56;12.50;;;6.28;;
67675;SDS011;54456;48.436;10.028;2023-08-24T17:19:27;15.93;;;6.22;;
67675;SDS011;54456;48.436;10.028;2023-08-24T17:21:01;13.70;;;6.50;;
67675;SDS011;54456;48.436;10.028;2023-08-24T17:22:33;13.13;;;6.43;;
67675;SDS011;54456;48.436;10.028;2023-08-24T17:24:04;16.70;;;6.53;;
67675;SDS011;54456;48.436;10.028;2023-08-24T17:33:56;13.15;;;6.43;;
67675;SDS011;54456;48.436;10.028;2023-08-24T17:35:28;13.82;;;6.50;;
67675;SDS011;54456;48.436;10.028;2023-08-24T17:37:00;11.23;;;6.63;;
67675;SDS011;54456;48.436;10.028;2023-08-24T17:38:37;10.02;;;5.80;;
67675;SDS011;54456;48.436;10.028;2023-08-24T17:40:08;11.90;;;6.55;;
67675;SDS011;54456;48.436;10.028;2023-08-24T17:41:42;11.68;;;6.20;;
67675;SDS011;54456;48.436;10.028;2023-08-24T17:43:19;14.00;;;6.47;;
67675;SDS011;54456;48.436;10.028;2023-08-24T17:44:53;11.18;;;6.30;;
67675;SDS011;54456;48.436;10.028;2023-08-24T17:46:25;12.88;;;5.90;;
67675;SDS011;54456;48.436;10.028;2023-08-24T17:47:57;13.65;;;5.97;;
67675;SDS011;54456;48.436;10.028;2023-08-24T17:49:29;13.48;;;5.93;;
67675;SDS011;54456;48.436;10.028;2023-08-24T17:51:00;13.00;;;5.88;;
67675;SDS011;54456;48.436;10.028;2023-08-24T17:52:33;11.25;;;5.72;;
67675;SDS011;54456;48.436;10.028;2023-08-24T17:54:11;11.82;;;5.57;;
67675;SDS011;54456;48.436;10.028;2023-08-24T17:55:41;12.95;;;5.95;;
67675;SDS011;54456;48.436;10.028;2023-08-24T17:57:15;12.63;;;5.78;;
67675;SDS011;54456;48.436;10.028;2023-08-24T17:58:46;12.30;;;5.85;;
67675;SDS011;54456;48.436;10.028;2023-08-24T18:00:17;10.73;;;5.43;;
67675;SDS011;54456;48.436;10.028;2023-08-24T18:01:50;12.43;;;5.53;;
67675;SDS011;54456;48.436;10.028;2023-08-24T18:03:20;11.68;;;5.65;;
67675;SDS011;54456;48.436;10.028;2023-08-24T18:04:52;10.88;;;5.68;;
67675;SDS011;54456;48.436;10.028;2023-08-24T18:06:22;9.75;;;5.40;;
67675;SDS011;54456;48.436;10.028;2023-08-24T18:07:53;12.18;;;5.00;;
67675;SDS011;54456;48.436;10.028;2023-08-24T18:09:24;10.50;;;5.35;;
67675;SDS011;54456;48.436;10.028;2023-08-24T18:11:01;10.10;;;5.38;;
67675;SDS011;54456;48.436;10.028;2023-08-24T18:12:33;11.45;;;4.93;;